Hauptseite
METAR-TAF:

METAR-TAF

Flughäfen :

Tongatapu, Tonga

Flughafen Fuaʻamotu

Breite: 21-14S, Länge: 175-09W, Höhe: 38 m

Beobachtung

Neuester Wetterbericht von vor 37 Minuten, um 02:00 UTC
Windstille
Temperatur 24°C
Luftfeuchtigkeit 61%
Luftdruck 1017 hPa
Sichtweite 10 km oder mehr
Aufgelockert bewölkt in der Höhe von 1700 ft

METAR: NFTF 280200Z 00000KT 9999 SCT017 24/16 Q1017

Zeit: 15:37 (02:37 UTC)

Prognose

Neuester Wetterbericht von vor 3 Stunden und 37 Minuten, um 23:00 UTC
Gültige Prognose vom 28 um 00 UTC bis 28 um 24 UTC
Wind 6 kt aus Ost/Südost
Sichtweite 10 km oder mehr
Aufgelockert bewölkt in der Höhe von 1800 ft

TAF: NFTF 272300Z 2800/2824 12006KT 9999 SCT018

Wetterbeobachtungen und Prognosen von mehr als 4000 Flughäfen (METAR und TAF Bericht).

Die verfügbaren Stationen werden durch gelbe und rote Markierungen auf der Karte dargestellt.

Führen Sie die Maus auf sie, um den Namen der Station zu sehen.

Darauf klicken, um die Beobachtung von Wetterbeobachtungen und Prognosen zu sehen.

Um die Karte zu ändern : klicken Sie auf den grünen Tasten mit einem schwarzen Kreuz Zum Vergrößern, auf den grünen Button mit einem Gedankenstrich zu verkleinern, oder auf die grünen Pfeile für benachbarte Karten.


METAR-TAF: